Wetterdaten: Dienstag, 03.03.2015
Datum Zeit Temp. A. Feuchte A. Luftdruck Regen Wind Richtung Richtung Sonnenschein ET UV Solar Taupunkt Windchill Windben Empfang
03.03.2015 00:00 2,5 C 79 % 1016,4 hPa 0,0 l/m 4,3 km/h (1 Bft) O-SO 118 0 min 0,000 mm 0,0 UV-I 0 W/m -0,8 C 2,5 C 11,9 km/h (2 Bft) 0,00 %
03.03.2015 00:15 2,7 C 77 % 1016,5 hPa 0,0 l/m 9,0 km/h (2 Bft) W-SW 252 0 min 0,000 mm 0,0 UV-I 0 W/m -0,9 C 0,3 C 11,9 km/h (2 Bft) 0,00 %
03.03.2015 00:30 2,7 C 75 % 1016,8 hPa 0,0 l/m 10,4 km/h (2 Bft) W-NW 282 0 min 0,000 mm 0,0 UV-I 0 W/m -1,3 C -0,8 C 15,8 km/h (3 Bft) 0,00 %
03.03.2015 00:45 0,0 C 81 % 1019,2 hPa 0,0 l/m 32,0 km/h (5 Bft) W-SW 255 0 min 0,000 mm 0,0 UV-I 0 W/m -2,9 C -14,0 C 40,0 km/h (6 Bft) 0,00 %
03.03.2015 01:00 -0,2 C 84 % 1019,2 hPa 0,0 l/m 5,8 km/h (2 Bft) W-SW 256 0 min 0,000 mm 0,0 UV-I 0 W/m -2,6 C -0,2 C 7,9 km/h (2 Bft) 0,00 %
03.03.2015 01:15 -0,2 C 85 % 1019,6 hPa 0,0 l/m 0,4 km/h (0 Bft) NO 34 0 min 0,000 mm 0,0 UV-I 0 W/m -2,4 C -0,2 C 4,0 km/h (1 Bft) 0,00 %
03.03.2015 01:30 -0,2 C 85 % 1019,8 hPa 0,0 l/m 6,5 km/h (2 Bft) W-SW 253 0 min 0,000 mm 0,0 UV-I 0 W/m -2,4 C -0,3 C 7,9 km/h (2 Bft) 0,00 %
03.03.2015 01:45 -0,1 C 83 % 1020,4 hPa 0,0 l/m 4,7 km/h (1 Bft) W-SW 250 0 min 0,000 mm 0,0 UV-I 0 W/m -2,6 C -0,1 C 7,9 km/h (2 Bft) 0,00 %
03.03.2015 02:00 0,0 C 81 % 1020,4 hPa 0,0 l/m 7,2 km/h (2 Bft) W-SW 250 0 min 0,000 mm 0,0 UV-I 0 W/m -2,9 C -0,8 C 7,9 km/h (2 Bft) 0,00 %
03.03.2015 02:15 0,0 C 81 % 1020,3 hPa 0,0 l/m 4,0 km/h (1 Bft) W 274 0 min 0,000 mm 0,0 UV-I 0 W/m -2,9 C 0,0 C 7,9 km/h (2 Bft) 0,00 %
03.03.2015 02:30 0,1 C 80 % 1020,3 hPa 0,0 l/m 0,7 km/h (0 Bft) SW 216 0 min 0,000 mm 0,0 UV-I 0 W/m -2,9 C 0,1 C 4,0 km/h (1 Bft) 0,00 %
03.03.2015 02:45 0,1 C 80 % 1020,2 hPa 0,0 l/m 0,4 km/h (0 Bft) O-SO 118 0 min 0,000 mm 0,0 UV-I 0 W/m -2,9 C 0,1 C 4,0 km/h (1 Bft) 0,00 %
03.03.2015 03:00 0,1 C 80 % 1020,2 hPa 0,0 l/m 4,3 km/h (1 Bft) NW 320 0 min 0,000 mm 0,0 UV-I 0 W/m -2,9 C 0,1 C 7,9 km/h (2 Bft) 0,00 %
03.03.2015 03:15 0,4 C 77 % 1020,4 hPa 0,0 l/m 0,7 km/h (0 Bft) N 6 0 min 0,000 mm 0,0 UV-I 0 W/m -3,1 C 0,4 C 4,0 km/h (1 Bft) 0,00 %
03.03.2015 03:30 0,8 C 72 % 1020,5 hPa 0,0 l/m 10,4 km/h (2 Bft) NW 314 0 min 0,000 mm 0,0 UV-I 0 W/m -3,7 C -2,9 C 19,8 km/h (3 Bft) 0,00 %
03.03.2015 03:45 1,0 C 70 % 1020,8 hPa 0,0 l/m 5,8 km/h (2 Bft) S-SW 200 0 min 0,000 mm 0,0 UV-I 0 W/m -3,8 C 1,0 C 11,9 km/h (2 Bft) 0,00 %
03.03.2015 04:00 1,1 C 69 % 1020,7 hPa 0,0 l/m 19,4 km/h (3 Bft) W-SW 256 0 min 0,000 mm 0,0 UV-I 0 W/m -3,9 C -7,9 C 28,1 km/h (4 Bft) 0,00 %
03.03.2015 04:15 1,3 C 69 % 1020,8 hPa 0,0 l/m 14,8 km/h (3 Bft) W 272 0 min 0,000 mm 0,0 UV-I 0 W/m -3,7 C -5,3 C 15,8 km/h (3 Bft) 0,00 %
03.03.2015 04:30 1,3 C 69 % 1021,2 hPa 0,0 l/m 3,2 km/h (1 Bft) SW 216 0 min 0,000 mm 0,0 UV-I 0 W/m -3,7 C 1,3 C 4,0 km/h (1 Bft) 0,00 %
03.03.2015 04:45 1,1 C 69 % 1021,7 hPa 0,0 l/m 5,8 km/h (2 Bft) SW 226 0 min 0,000 mm 0,0 UV-I 0 W/m -3,9 C 1,1 C 7,9 km/h (2 Bft) 0,00 %
03.03.2015 05:00 1,0 C 68 % 1021,9 hPa 0,0 l/m 5,8 km/h (2 Bft) W-SW 255 0 min 0,000 mm 0,0 UV-I 0 W/m -4,2 C 1,0 C 7,9 km/h (2 Bft) 0,00 %
03.03.2015 05:15 0,9 C 68 % 1022,0 hPa 0,0 l/m 1,4 km/h (1 Bft) S 183 0 min 0,000 mm 0,0 UV-I 0 W/m -4,3 C 0,9 C 4,0 km/h (1 Bft) 0,00 %
03.03.2015 05:30 0,7 C 67 % 1022,1 hPa 0,0 l/m 5,8 km/h (2 Bft) W-NW 298 0 min 0,000 mm 0,0 UV-I 0 W/m -4,7 C 0,7 C 11,9 km/h (2 Bft) 0,00 %
03.03.2015 05:45 0,8 C 66 % 1022,2 hPa 0,0 l/m 6,5 km/h (2 Bft) W-SW 250 0 min 0,000 mm 0,0 UV-I 0 W/m -4,8 C 0,7 C 11,9 km/h (2 Bft) 0,00 %
03.03.2015 06:00 0,8 C 66 % 1022,4 hPa 0,0 l/m 0,4 km/h (0 Bft) W-SW 256 0 min 0,000 mm 0,0 UV-I 0 W/m -4,8 C 0,8 C 4,0 km/h (1 Bft) 0,00 %
03.03.2015 06:15 0,8 C 65 % 1022,3 hPa 0,0 l/m 1,8 km/h (1 Bft) SW 236 0 min 0,000 mm 0,0 UV-I 0 W/m -5,0 C 0,8 C 4,0 km/h (1 Bft) 0,00 %
03.03.2015 06:30 0,8 C 65 % 1022,5 hPa 0,0 l/m 2,2 km/h (1 Bft) W 265 0 min 0,000 mm 0,0 UV-I 0 W/m -5,0 C 0,8 C 4,0 km/h (1 Bft) 0,00 %
03.03.2015 06:45 0,7 C 65 % 1022,7 hPa 0,0 l/m 0,4 km/h (0 Bft) O-SO 117 0 min 0,000 mm 0,0 UV-I 0 W/m -5,1 C 0,7 C 4,0 km/h (1 Bft) 0,00 %
03.03.2015 07:00 0,7 C 66 % 1022,9 hPa 0,0 l/m 0,4 km/h (0 Bft) W-SW 254 0 min 0,000 mm 0,0 UV-I 18 W/m -4,9 C 0,7 C 4,0 km/h (1 Bft) 0,00 %
03.03.2015 07:15 1,0 C 65 % 1023,3 hPa 0,0 l/m 1,4 km/h (1 Bft) SW 229 0 min 0,000 mm 1,0 UV-I 36 W/m -4,8 C 1,0 C 4,0 km/h (1 Bft) 0,00 %
03.03.2015 07:30 1,5 C 62 % 1023,3 hPa 0,0 l/m 0,4 km/h (0 Bft) S 185 0 min 0,000 mm 1,0 UV-I 53 W/m -5,0 C 1,5 C 4,0 km/h (1 Bft) 0,00 %
03.03.2015 07:45 1,9 C 60 % 1023,3 hPa 0,0 l/m 0,7 km/h (0 Bft) O 82 0 min 0,000 mm 1,0 UV-I 65 W/m -5,0 C 1,9 C 4,0 km/h (1 Bft) 0,00 %
03.03.2015 08:00 2,3 C 60 % 1023,4 hPa 0,0 l/m 4,3 km/h (1 Bft) W-SW 256 0 min 0,000 mm 1,0 UV-I 76 W/m -4,6 C 2,3 C 11,9 km/h (2 Bft) 0,00 %
03.03.2015 08:15 2,2 C 64 % 1023,6 hPa 0,0 l/m 0,0 km/h (0 Bft) S 190 0 min 0,000 mm 1,0 UV-I 81 W/m -3,9 C 2,2 C 0,0 km/h (0 Bft) 0,00 %
03.03.2015 08:30 2,9 C 63 % 1023,5 hPa 0,0 l/m 4,0 km/h (1 Bft) W-SW 252 0 min 0,000 mm 1,0 UV-I 88 W/m -3,4 C 2,9 C 7,9 km/h (2 Bft) 0,00 %
03.03.2015 08:45 3,4 C 61 % 1023,5 hPa 0,0 l/m 0,4 km/h (0 Bft) S 178 0 min 0,000 mm 1,0 UV-I 92 W/m -3,4 C 3,4 C 4,0 km/h (1 Bft) 0,00 %
03.03.2015 09:00 3,7 C 60 % 1023,8 hPa 0,0 l/m 0,4 km/h (0 Bft) SW 233 0 min 0,000 mm 2,0 UV-I 89 W/m -3,3 C 3,7 C 4,0 km/h (1 Bft) 0,00 %
03.03.2015 09:15 4,0 C 60 % 1023,8 hPa 0,3 l/m 0,0 km/h (0 Bft) W 272 0 min 0,000 mm 2,0 UV-I 114 W/m -3,0 C 4,0 C 0,0 km/h (0 Bft) 0,00 %
03.03.2015 09:30 4,6 C 60 % 1023,5 hPa 0,3 l/m 1,8 km/h (1 Bft) O 99 0 min 0,000 mm 2,0 UV-I 119 W/m -2,5 C 4,6 C 7,9 km/h (2 Bft) 0,00 %
03.03.2015 09:45 4,7 C 59 % 1023,5 hPa 0,3 l/m 0,4 km/h (0 Bft) N-NW 329 0 min 0,000 mm 1,0 UV-I 240 W/m -2,6 C 4,7 C 4,0 km/h (1 Bft) 0,00 %
03.03.2015 10:00 3,9 C 61 % 1024,0 hPa 0,0 l/m 0,0 km/h (0 Bft) SW 218 0 min 0,000 mm 1,0 UV-I 150 W/m -2,9 C 3,9 C 0,0 km/h (0 Bft) 0,00 %
03.03.2015 10:15 4,1 C 61 % 1023,8 hPa 0,3 l/m 1,4 km/h (1 Bft) S 178 0 min 0,000 mm 1,0 UV-I 174 W/m -2,7 C 4,1 C 4,0 km/h (1 Bft) 0,00 %
03.03.2015 10:30 4,1 C 59 % 1023,9 hPa 0,0 l/m 3,2 km/h (1 Bft) W-SW 252 0 min 0,000 mm 2,0 UV-I 145 W/m -3,2 C 4,1 C 7,9 km/h (2 Bft) 0,00 %
03.03.2015 10:45 4,7 C 58 % 1023,8 hPa 0,0 l/m 0,0 km/h (0 Bft) W-SW 255 0 min 0,000 mm 2,0 UV-I 222 W/m -2,8 C 4,7 C 0,0 km/h (0 Bft) 0,00 %
03.03.2015 11:00 5,3 C 56 % 1023,7 hPa 0,0 l/m 4,0 km/h (1 Bft) W-SW 255 0 min 0,000 mm 3,0 UV-I 261 W/m -2,8 C 5,3 C 7,9 km/h (2 Bft) 0,00 %
03.03.2015 11:15 5,5 C 56 % 1023,6 hPa 0,0 l/m 7,2 km/h (2 Bft) W-SW 254 15 min 0,000 mm 2,0 UV-I 347 W/m -2,6 C 4,8 C 11,9 km/h (2 Bft) 0,00 %
03.03.2015 11:30 5,5 C 53 % 1023,5 hPa 0,0 l/m 5,4 km/h (1 Bft) W-NW 286 0 min 0,000 mm 2,0 UV-I 130 W/m -3,3 C 5,5 C 7,9 km/h (2 Bft) 0,00 %
03.03.2015 11:45 6,3 C 48 % 1023,3 hPa 0,0 l/m 4,0 km/h (1 Bft) SW 225 0 min 0,000 mm 2,0 UV-I 203 W/m -3,9 C 6,3 C 7,9 km/h (2 Bft) 0,00 %
03.03.2015 12:00 6,0 C 50 % 1023,6 hPa 0,0 l/m 10,8 km/h (2 Bft) W-NW 302 0 min 0,000 mm 2,0 UV-I 184 W/m -3,6 C 2,6 C 11,9 km/h (2 Bft) 0,00 %
03.03.2015 12:15 5,9 C 49 % 1023,5 hPa 0,0 l/m 11,5 km/h (2 Bft) SW 222 0 min 0,000 mm 2,0 UV-I 151 W/m -4,0 C 2,1 C 15,8 km/h (3 Bft) 0,00 %
03.03.2015 12:30 7,0 C 48 % 1023,1 hPa 0,0 l/m 3,2 km/h (1 Bft) W-SW 256 0 min 0,000 mm 2,0 UV-I 177 W/m -3,2 C 7,0 C 7,9 km/h (2 Bft) 0,00 %
03.03.2015 12:45 6,6 C 47 % 1023,2 hPa 0,0 l/m 10,4 km/h (2 Bft) W-SW 252 0 min 0,000 mm 2,0 UV-I 187 W/m -3,9 C 3,6 C 15,8 km/h (3 Bft) 0,00 %
03.03.2015 13:00 6,3 C 49 % 1023,1 hPa 0,0 l/m 4,3 km/h (1 Bft) W-NW 284 0 min 0,000 mm 2,0 UV-I 199 W/m -3,6 C 6,3 C 7,9 km/h (2 Bft) 0,00 %
03.03.2015 13:15 6,4 C 48 % 1022,9 hPa 0,0 l/m 0,0 km/h (0 Bft) S 189 0 min 0,000 mm 2,0 UV-I 205 W/m -3,8 C 6,4 C 0,0 km/h (0 Bft) 0,00 %
03.03.2015 13:30 6,4 C 48 % 1022,9 hPa 0,0 l/m 1,8 km/h (1 Bft) W-SW 256 0 min 0,000 mm 2,0 UV-I 250 W/m -3,8 C 6,4 C 4,0 km/h (1 Bft) 0,00 %
03.03.2015 13:45 7,3 C 44 % 1022,4 hPa 0,0 l/m 1,4 km/h (1 Bft) W-SW 254 0 min 0,000 mm 2,0 UV-I 270 W/m -4,1 C 7,3 C 4,0 km/h (1 Bft) 0,00 %
03.03.2015 14:00 7,4 C 42 % 1022,2 hPa 0,0 l/m 5,8 km/h (2 Bft) W-SW 256 15 min 0,000 mm 2,0 UV-I 290 W/m -4,7 C 7,4 C 7,9 km/h (2 Bft) 0,00 %
03.03.2015 14:15 6,9 C 42 % 1022,2 hPa 0,0 l/m 7,9 km/h (2 Bft) N-NW 329 15 min 0,000 mm 2,0 UV-I 305 W/m -5,1 C 5,7 C 11,9 km/h (2 Bft) 0,00 %
03.03.2015 14:30 6,9 C 41 % 1021,1 hPa 0,0 l/m 10,4 km/h (2 Bft) W-SW 254 15 min 0,000 mm 2,0 UV-I 310 W/m -5,4 C 3,9 C 15,8 km/h (3 Bft) 0,00 %
03.03.2015 14:45 7,1 C 40 % 1021,3 hPa 0,0 l/m 0,0 km/h (0 Bft) SW 217 15 min 0,000 mm 1,0 UV-I 320 W/m -5,6 C 7,1 C 0,0 km/h (0 Bft) 0,00 %
03.03.2015 15:00 7,2 C 39 % 1020,6 hPa 0,0 l/m 4,3 km/h (1 Bft) N-NW 343 15 min 0,000 mm 1,0 UV-I 290 W/m -5,8 C 7,2 C 7,9 km/h (2 Bft) 0,00 %
03.03.2015 15:15 7,2 C 38 % 1020,6 hPa 0,0 l/m 4,0 km/h (1 Bft) W-SW 253 15 min 0,000 mm 1,0 UV-I 280 W/m -6,1 C 7,2 C 11,9 km/h (2 Bft) 0,00 %
03.03.2015 15:30 7,8 C 35 % 1020,4 hPa 0,0 l/m 7,2 km/h (2 Bft) W-SW 252 15 min 0,000 mm 1,0 UV-I 270 W/m -6,7 C 7,2 C 11,9 km/h (2 Bft) 0,00 %
03.03.2015 15:45 7,6 C 36 % 1020,4 hPa 0,0 l/m 0,4 km/h (0 Bft) S-SW 200 15 min 0,000 mm 1,0 UV-I 299 W/m -6,5 C 7,6 C 4,0 km/h (1 Bft) 0,00 %
03.03.2015 16:00 7,7 C 36 % 1020,3 hPa 0,0 l/m 8,3 km/h (2 Bft) W-NW 294 15 min 0,000 mm 1,0 UV-I 288 W/m -6,4 C 6,2 C 11,9 km/h (2 Bft) 0,00 %
03.03.2015 16:15 7,9 C 32 % 1020,3 hPa 0,0 l/m 4,0 km/h (1 Bft) W-SW 255 15 min 0,000 mm 1,0 UV-I 441 W/m -7,8 C 7,9 C 11,9 km/h (2 Bft) 0,00 %
03.03.2015 16:30 8,1 C 32 % 1020,3 hPa 0,0 l/m 0,7 km/h (0 Bft) O 97 15 min 0,000 mm 1,0 UV-I 391 W/m -7,6 C 8,1 C 4,0 km/h (1 Bft) 0,00 %
03.03.2015 16:45 7,9 C 33 % 1020,6 hPa 0,0 l/m 2,2 km/h (1 Bft) W-SW 253 15 min 0,000 mm 1,0 UV-I 332 W/m -7,4 C 7,9 C 4,0 km/h (1 Bft) 0,00 %
03.03.2015 17:00 7,8 C 35 % 1020,6 hPa 0,0 l/m 1,4 km/h (1 Bft) S-SW 208 15 min 0,000 mm 0,0 UV-I 265 W/m -6,7 C 7,8 C 4,0 km/h (1 Bft) 0,00 %
03.03.2015 17:15 7,1 C 38 % 1021,0 hPa 0,0 l/m 1,8 km/h (1 Bft) W-NW 289 15 min 0,000 mm 0,0 UV-I 169 W/m -6,2 C 7,1 C 4,0 km/h (1 Bft) 0,00 %
03.03.2015 17:30 6,4 C 40 % 1021,2 hPa 0,0 l/m 0,0 km/h (0 Bft) W-SW 256 15 min 0,000 mm 0,0 UV-I 65 W/m -6,2 C 6,4 C 0,0 km/h (0 Bft) 0,00 %
03.03.2015 17:45 5,5 C 43 % 1021,5 hPa 0,0 l/m 0,0 km/h (0 Bft) SW 215 0 min 0,000 mm 0,0 UV-I 3 W/m -6,1 C 5,5 C 0,0 km/h (0 Bft) 0,00 %
03.03.2015 18:00 4,3 C 52 % 1021,7 hPa 0,0 l/m 0,0 km/h (0 Bft) S 176 0 min 0,000 mm 0,0 UV-I 0 W/m -4,7 C 4,3 C 0,0 km/h (0 Bft) 0,00 %
03.03.2015 18:15 3,4 C 56 % 1021,9 hPa 0,0 l/m 0,0 km/h (0 Bft) S-SW 207 0 min 0,000 mm 0,0 UV-I 0 W/m -4,5 C 3,4 C 0,0 km/h (0 Bft) 0,00 %
03.03.2015 18:30 3,4 C 53 % 1021,9 hPa 0,0 l/m 0,4 km/h (0 Bft) SO 138 0 min 0,000 mm 0,0 UV-I 0 W/m -5,3 C 3,4 C 4,0 km/h (1 Bft) 0,00 %
03.03.2015 18:45 2,7 C 56 % 1022,0 hPa 0,0 l/m 0,0 km/h (0 Bft) S-SO 164 0 min 0,000 mm 0,0 UV-I 0 W/m -5,2 C 2,7 C 0,0 km/h (0 Bft) 0,00 %
03.03.2015 19:00 2,3 C 56 % 1022,1 hPa 0,0 l/m 0,0 km/h (0 Bft) S 176 0 min 0,000 mm 0,0 UV-I 0 W/m -5,6 C 2,3 C 0,0 km/h (0 Bft) 0,00 %
03.03.2015 19:15 1,7 C 58 % 1022,2 hPa 0,0 l/m 0,0 km/h (0 Bft) S 187 0 min 0,000 mm 0,0 UV-I 0 W/m -5,7 C 1,7 C 0,0 km/h (0 Bft) 0,00 %
03.03.2015 19:30 1,5 C 59 % 1022,0 hPa 0,0 l/m 0,0 km/h (0 Bft) S-SW 199 0 min 0,000 mm 0,0 UV-I 0 W/m -5,6 C 1,5 C 0,0 km/h (0 Bft) 0,00 %
03.03.2015 19:45 1,2 C 58 % 1022,0 hPa 0,0 l/m 0,0 km/h (0 Bft) S-SW 212 0 min 0,000 mm 0,0 UV-I 0 W/m -6,1 C 1,2 C 0,0 km/h (0 Bft) 0,00 %
03.03.2015 20:00 1,1 C 57 % 1021,9 hPa 0,0 l/m 0,0 km/h (0 Bft) S-SW 210 0 min 0,000 mm 0,0 UV-I 0 W/m -6,4 C 1,1 C 0,0 km/h (0 Bft) 0,00 %
03.03.2015 20:15 1,2 C 57 % 1021,7 hPa 0,0 l/m 0,0 km/h (0 Bft) S-SW 197 0 min 0,000 mm 0,0 UV-I 0 W/m -6,4 C 1,2 C 0,0 km/h (0 Bft) 0,00 %
03.03.2015 20:30 1,0 C 59 % 1021,8 hPa 0,0 l/m 0,0 km/h (0 Bft) SW 215 0 min 0,000 mm 0,0 UV-I 0 W/m -6,1 C 1,0 C 0,0 km/h (0 Bft) 0,00 %
03.03.2015 20:45 0,6 C 62 % 1022,0 hPa 0,0 l/m 0,0 km/h (0 Bft) S-SW 211 0 min 0,000 mm 0,0 UV-I 0 W/m -5,8 C 0,6 C 0,0 km/h (0 Bft) 0,00 %
03.03.2015 21:00 0,1 C 64 % 1022,1 hPa 0,0 l/m 0,0 km/h (0 Bft) S 179 0 min 0,000 mm 0,0 UV-I 0 W/m -5,9 C 0,1 C 0,0 km/h (0 Bft) 0,00 %
03.03.2015 21:15 -0,3 C 64 % 1022,0 hPa 0,0 l/m 0,0 km/h (0 Bft) SW 217 0 min 0,000 mm 0,0 UV-I 0 W/m -6,3 C -0,3 C 0,0 km/h (0 Bft) 0,00 %
03.03.2015 21:30 -0,4 C 65 % 1021,8 hPa 0,0 l/m 0,0 km/h (0 Bft) S-SW 209 0 min 0,000 mm 0,0 UV-I 0 W/m -6,2 C -0,4 C 0,0 km/h (0 Bft) 0,00 %
03.03.2015 21:45 -0,4 C 66 % 1022,0 hPa 0,0 l/m 0,0 km/h (0 Bft) SW 218 0 min 0,000 mm 0,0 UV-I 0 W/m -6,0 C -0,4 C 0,0 km/h (0 Bft) 0,00 %
03.03.2015 22:00 -0,5 C 66 % 1021,9 hPa 0,0 l/m 0,0 km/h (0 Bft) S 185 0 min 0,000 mm 0,0 UV-I 0 W/m -6,1 C -0,5 C 0,0 km/h (0 Bft) 0,00 %
03.03.2015 22:15 0,0 C 63 % 1021,7 hPa 0,0 l/m 0,0 km/h (0 Bft) SW 225 0 min 0,000 mm 0,0 UV-I 0 W/m -6,2 C 0,0 C 0,0 km/h (0 Bft) 0,00 %
03.03.2015 22:30 -0,3 C 64 % 1021,8 hPa 0,0 l/m 0,0 km/h (0 Bft) S-SW 206 0 min 0,000 mm 0,0 UV-I 0 W/m -6,3 C -0,3 C 0,0 km/h (0 Bft) 0,00 %
03.03.2015 22:45 -0,3 C 62 % 1021,8 hPa 0,0 l/m 0,0 km/h (0 Bft) S 189 0 min 0,000 mm 0,0 UV-I 0 W/m -6,7 C -0,3 C 0,0 km/h (0 Bft) 0,00 %
03.03.2015 23:00 -0,3 C 63 % 1021,8 hPa 0,0 l/m 0,0 km/h (0 Bft) S 177 0 min 0,000 mm 0,0 UV-I 0 W/m -6,5 C -0,3 C 0,0 km/h (0 Bft) 0,00 %
03.03.2015 23:15 -0,3 C 62 % 1021,7 hPa 0,0 l/m 0,0 km/h (0 Bft) S-SW 206 0 min 0,000 mm 0,0 UV-I 0 W/m -6,7 C -0,3 C 0,0 km/h (0 Bft) 0,00 %
03.03.2015 23:30 -0,3 C 63 % 1021,6 hPa 0,0 l/m 0,0 km/h (0 Bft) S 176 0 min 0,000 mm 0,0 UV-I 0 W/m -6,5 C -0,3 C 0,0 km/h (0 Bft) 0,00 %
03.03.2015 23:45 -0,6 C 65 % 1021,5 hPa 0,0 l/m 0,0 km/h (0 Bft) S 184 0 min 0,000 mm 0,0 UV-I 0 W/m -6,3 C -0,6 C 0,0 km/h (0 Bft) 0,00 %
_ Min-Zeit 23:45 16:15 00:00 - 08:15 - - - - - - 16:15 00:45 08:15 00:00
Minimum _ -0,6 C 32 % 1016,4 hPa - 0,0 km/h (0 Bft) - - - - - - -7,8 C -14,0 C 0,0 km/h (0 Bft) 0,00 %
_ Max-Zeit 16:30 01:15 10:00 09:15 00:45 - - 11:15 00:00 11:00 16:15 00:00 16:30 00:45 00:00
Maximum _ 8,1 C 85 % 1024,0 hPa 0,3 l/m 32,0 km/h
W-SW (5 Bft)
- - 15 min 0,000 mm 3,0 UV-I 441 W/m -0,8 C 8,1 C 40,0 km/h
W-SW (6 Bft)
0,00 %
Durchschnitt _ 2,9 C 59 % 1021,8 hPa #1,2 l/m 3,3 km/h (1 Bft) W-SW - #4:00 h #0,000 mm 1,5 UV-I 196 W/m -4,6 C 2,3 C 5,9 km/h (2 Bft) 0,00 %